createdAt,value
2023-12-23T00:01:23.000Z,278.71
2023-12-23T00:03:29.000Z,278.71
2023-12-23T00:04:56.000Z,278.65
2023-12-23T00:07:02.000Z,278.71
2023-12-23T00:09:47.000Z,278.65
2023-12-23T00:11:14.000Z,278.65
2023-12-23T00:13:21.000Z,278.65
2023-12-23T00:14:47.000Z,278.65
2023-12-23T00:16:53.000Z,278.59
2023-12-23T00:18:20.000Z,278.65
2023-12-23T00:20:26.000Z,278.59
2023-12-23T00:21:53.000Z,278.65
2023-12-23T00:23:59.000Z,278.59
2023-12-23T00:25:26.000Z,278.59
2023-12-23T00:27:32.000Z,278.52
2023-12-23T00:28:58.000Z,278.52
2023-12-23T00:31:04.000Z,278.52
2023-12-23T00:32:31.000Z,278.52
2023-12-23T00:34:37.000Z,278.59
2023-12-23T00:36:04.000Z,278.52
2023-12-23T00:38:10.000Z,278.59
2023-12-23T00:39:36.000Z,278.59
2023-12-23T00:41:43.000Z,278.59
2023-12-23T00:43:09.000Z,278.59
2023-12-23T00:45:16.000Z,278.59
2023-12-23T00:48:01.000Z,278.52
2023-12-23T00:49:28.000Z,278.52
2023-12-23T00:51:34.000Z,278.52
2023-12-23T00:53:01.000Z,278.59
2023-12-23T00:55:07.000Z,278.52
2023-12-23T00:56:33.000Z,278.52
2023-12-23T00:58:40.000Z,278.46
2023-12-23T01:00:06.000Z,278.52
2023-12-23T01:02:12.000Z,278.52
2023-12-23T01:03:39.000Z,278.52
2023-12-23T01:05:45.000Z,278.59
2023-12-23T01:07:11.000Z,278.59
2023-12-23T01:09:17.000Z,278.59
2023-12-23T01:10:44.000Z,278.59
2023-12-23T01:12:50.000Z,278.52
2023-12-23T01:14:17.000Z,278.52
2023-12-23T01:16:23.000Z,278.52
2023-12-23T01:17:50.000Z,278.59
2023-12-23T01:19:56.000Z,278.46
2023-12-23T01:21:23.000Z,278.52
2023-12-23T01:23:29.000Z,278.59
2023-12-23T01:26:14.000Z,278.52
2023-12-23T01:27:41.000Z,278.65
2023-12-23T01:29:47.000Z,278.59
2023-12-23T01:31:13.000Z,278.59
2023-12-23T01:33:20.000Z,278.46
2023-12-23T01:34:47.000Z,278.52
2023-12-23T01:36:53.000Z,278.52
2023-12-23T01:38:19.000Z,278.52
2023-12-23T01:40:26.000Z,278.52
2023-12-23T01:41:52.000Z,278.59
2023-12-23T01:43:58.000Z,278.59
2023-12-23T01:45:25.000Z,278.65
2023-12-23T01:47:31.000Z,278.65
2023-12-23T01:48:58.000Z,278.65
2023-12-23T01:51:04.000Z,278.59
2023-12-23T01:52:30.000Z,278.59
2023-12-23T01:54:37.000Z,278.59
2023-12-23T01:56:03.000Z,278.52
2023-12-23T01:58:10.000Z,278.52
2023-12-23T01:59:36.000Z,278.52
2023-12-23T02:01:42.000Z,278.59
2023-12-23T02:04:28.000Z,278.52
2023-12-23T02:05:54.000Z,278.59
2023-12-23T02:08:01.000Z,278.52
2023-12-23T02:09:27.000Z,278.59
2023-12-23T02:11:34.000Z,278.59
2023-12-23T02:13:01.000Z,278.59
2023-12-23T02:15:17.000Z,278.52
2023-12-23T02:16:43.000Z,278.52
2023-12-23T02:18:50.000Z,278.52
2023-12-23T02:20:16.000Z,278.52
2023-12-23T02:22:22.000Z,278.52
2023-12-23T02:23:49.000Z,278.59
2023-12-23T02:25:56.000Z,278.52
2023-12-23T02:27:22.000Z,278.59
2023-12-23T02:29:28.000Z,278.59
2023-12-23T02:30:55.000Z,278.59
2023-12-23T02:33:02.000Z,278.59
2023-12-23T02:34:29.000Z,278.52
2023-12-23T02:36:35.000Z,278.46
2023-12-23T02:38:01.000Z,278.52
2023-12-23T02:40:08.000Z,278.46
2023-12-23T02:42:53.000Z,278.59
2023-12-23T02:44:19.000Z,278.59
2023-12-23T02:46:26.000Z,278.52
2023-12-23T02:47:52.000Z,278.52
2023-12-23T02:49:58.000Z,278.59
2023-12-23T02:51:25.000Z,278.52
2023-12-23T02:53:31.000Z,278.46
2023-12-23T02:54:57.000Z,278.52
2023-12-23T02:57:04.000Z,278.46
2023-12-23T02:58:30.000Z,278.52
2023-12-23T03:00:36.000Z,278.59
2023-12-23T03:02:03.000Z,278.65
2023-12-23T03:04:09.000Z,278.59
2023-12-23T03:05:35.000Z,278.59
2023-12-23T03:07:42.000Z,278.59
2023-12-23T03:09:08.000Z,278.52
2023-12-23T03:11:14.000Z,278.52
2023-12-23T03:12:41.000Z,278.52
2023-12-23T03:14:47.000Z,278.52
2023-12-23T03:16:14.000Z,278.52
2023-12-23T03:18:20.000Z,278.46
2023-12-23T03:21:05.000Z,278.4
2023-12-23T03:22:31.000Z,278.4
2023-12-23T03:24:38.000Z,278.4
2023-12-23T03:26:04.000Z,278.4
2023-12-23T03:28:11.000Z,278.34
2023-12-23T03:29:37.000Z,278.34
2023-12-23T03:31:43.000Z,278.27
2023-12-23T03:33:10.000Z,278.27
2023-12-23T03:35:16.000Z,278.27
2023-12-23T03:36:43.000Z,278.21
2023-12-23T03:38:49.000Z,278.21
2023-12-23T03:40:16.000Z,278.21
2023-12-23T03:42:22.000Z,278.21
2023-12-23T03:43:48.000Z,278.21
2023-12-23T03:45:55.000Z,278.21
2023-12-23T03:47:21.000Z,278.15
2023-12-23T03:49:28.000Z,278.15
2023-12-23T03:50:54.000Z,278.15
2023-12-23T03:53:00.000Z,278.09
2023-12-23T03:54:27.000Z,278.09
2023-12-23T03:56:33.000Z,278.09
2023-12-23T03:59:18.000Z,278.09
2023-12-23T04:00:45.000Z,278.09
2023-12-23T04:02:52.000Z,278.02
2023-12-23T04:04:18.000Z,278.02
2023-12-23T04:06:24.000Z,277.96
2023-12-23T04:07:51.000Z,277.96
2023-12-23T04:09:57.000Z,277.9
2023-12-23T04:11:24.000Z,277.9
2023-12-23T04:13:30.000Z,277.84
2023-12-23T04:14:56.000Z,277.84
2023-12-23T04:17:02.000Z,277.84
2023-12-23T04:18:29.000Z,277.84
2023-12-23T04:20:35.000Z,277.84
2023-12-23T04:22:01.000Z,277.84
2023-12-23T04:24:07.000Z,277.84
2023-12-23T04:25:34.000Z,277.84
2023-12-23T04:27:40.000Z,277.84
2023-12-23T04:29:07.000Z,277.84
2023-12-23T04:31:13.000Z,277.84
2023-12-23T04:32:40.000Z,277.84
2023-12-23T04:34:46.000Z,277.84
2023-12-23T04:37:33.000Z,277.84
2023-12-23T04:39:00.000Z,277.84
2023-12-23T04:41:06.000Z,277.84
2023-12-23T04:42:33.000Z,277.9
2023-12-23T04:44:39.000Z,277.9
2023-12-23T04:46:05.000Z,277.9
2023-12-23T04:48:12.000Z,277.96
2023-12-23T04:49:38.000Z,277.96
2023-12-23T04:51:45.000Z,277.96
2023-12-23T04:53:11.000Z,278.02
2023-12-23T04:55:18.000Z,278.02
2023-12-23T04:56:44.000Z,278.02
2023-12-23T04:58:50.000Z,278.09
2023-12-23T05:00:17.000Z,278.09
2023-12-23T05:02:23.000Z,278.02
2023-12-23T05:03:50.000Z,278.02
2023-12-23T05:05:56.000Z,278.09
2023-12-23T05:07:23.000Z,278.09
2023-12-23T05:09:29.000Z,278.09
2023-12-23T05:10:55.000Z,278.15
2023-12-23T05:13:02.000Z,278.09
2023-12-23T05:15:47.000Z,278.15
2023-12-23T05:17:13.000Z,278.15
2023-12-23T05:19:20.000Z,278.15
2023-12-23T05:20:46.000Z,278.09
2023-12-23T05:22:52.000Z,278.09
2023-12-23T05:24:19.000Z,278.15
2023-12-23T05:26:25.000Z,278.21
2023-12-23T05:27:52.000Z,278.21
2023-12-23T05:29:58.000Z,278.27
2023-12-23T05:31:25.000Z,278.27
2023-12-23T05:33:31.000Z,278.27
2023-12-23T05:34:57.000Z,278.27
2023-12-23T05:37:04.000Z,278.27
2023-12-23T05:38:30.000Z,278.27
2023-12-23T05:40:36.000Z,278.27
2023-12-23T05:42:03.000Z,278.34
2023-12-23T05:44:09.000Z,278.34
2023-12-23T05:45:36.000Z,278.4
2023-12-23T05:47:42.000Z,278.46
2023-12-23T05:49:09.000Z,278.46
2023-12-23T05:51:15.000Z,278.52
2023-12-23T05:54:00.000Z,278.65
2023-12-23T05:55:26.000Z,278.71
2023-12-23T05:57:33.000Z,278.77
2023-12-23T05:59:00.000Z,278.77
2023-12-23T06:01:06.000Z,278.9
2023-12-23T06:02:33.000Z,278.96
2023-12-23T06:04:39.000Z,279.15
2023-12-23T06:06:05.000Z,279.15
2023-12-23T06:08:12.000Z,279.27
2023-12-23T06:09:39.000Z,279.21
2023-12-23T06:11:45.000Z,279.27
2023-12-23T06:13:12.000Z,279.27
2023-12-23T06:15:18.000Z,279.34
2023-12-23T06:16:44.000Z,279.4
2023-12-23T06:18:50.000Z,279.46
2023-12-23T06:20:17.000Z,279.52
2023-12-23T06:22:23.000Z,279.59
2023-12-23T06:23:50.000Z,279.59
2023-12-23T06:25:56.000Z,279.59
2023-12-23T06:27:22.000Z,279.59
2023-12-23T06:29:29.000Z,279.65
2023-12-23T06:32:14.000Z,279.65
2023-12-23T06:33:40.000Z,279.71
2023-12-23T06:35:47.000Z,279.77
2023-12-23T06:37:13.000Z,279.77
2023-12-23T06:39:20.000Z,279.77
2023-12-23T06:40:46.000Z,279.84
2023-12-23T06:42:53.000Z,279.77
2023-12-23T06:44:19.000Z,279.71
2023-12-23T06:46:26.000Z,279.77
2023-12-23T06:47:52.000Z,279.77
2023-12-23T06:49:58.000Z,279.77
2023-12-23T06:51:25.000Z,279.71
2023-12-23T06:53:32.000Z,279.71
2023-12-23T06:54:58.000Z,279.9
2023-12-23T06:57:04.000Z,279.84
2023-12-23T06:58:31.000Z,279.84
2023-12-23T07:00:37.000Z,279.84
2023-12-23T07:02:03.000Z,279.84
2023-12-23T07:04:10.000Z,279.9
2023-12-23T07:05:37.000Z,279.9
2023-12-23T07:07:43.000Z,279.9
2023-12-23T07:10:29.000Z,279.9
2023-12-23T07:11:55.000Z,279.9
2023-12-23T07:14:01.000Z,279.9
2023-12-23T07:15:28.000Z,279.9
2023-12-23T07:17:34.000Z,279.96
2023-12-23T07:19:06.000Z,279.96
2023-12-23T07:21:12.000Z,279.96
2023-12-23T07:22:39.000Z,279.96
2023-12-23T07:24:45.000Z,280.02
2023-12-23T07:26:12.000Z,280.09
2023-12-23T07:28:18.000Z,280.02
2023-12-23T07:29:45.000Z,279.96
2023-12-23T07:31:52.000Z,279.96
2023-12-23T07:33:18.000Z,279.96
2023-12-23T07:35:25.000Z,280.02
2023-12-23T07:36:51.000Z,280.02
2023-12-23T07:38:57.000Z,280.09
2023-12-23T07:40:24.000Z,280.09
2023-12-23T07:42:35.000Z,280.02
2023-12-23T07:44:01.000Z,280.02
2023-12-23T07:46:08.000Z,280.02
2023-12-23T07:48:53.000Z,280.09
2023-12-23T07:50:20.000Z,280.15
2023-12-23T07:52:26.000Z,280.15
2023-12-23T07:53:52.000Z,280.15
2023-12-23T07:55:59.000Z,280.15
2023-12-23T07:57:25.000Z,280.15
2023-12-23T07:59:32.000Z,280.21
2023-12-23T08:00:58.000Z,280.21
2023-12-23T08:03:05.000Z,280.21
2023-12-23T08:04:31.000Z,280.27
2023-12-23T08:06:37.000Z,280.27
2023-12-23T08:08:04.000Z,280.27
2023-12-23T08:10:10.000Z,280.21
2023-12-23T08:11:37.000Z,280.21
2023-12-23T08:13:43.000Z,280.27
2023-12-23T08:15:10.000Z,280.4
2023-12-23T08:17:16.000Z,280.34
2023-12-23T08:18:42.000Z,280.34
2023-12-23T08:20:49.000Z,280.34
2023-12-23T08:22:15.000Z,280.4
2023-12-23T08:24:21.000Z,280.4
2023-12-23T08:27:07.000Z,280.4
2023-12-23T08:28:33.000Z,280.46
2023-12-23T08:30:40.000Z,280.46
2023-12-23T08:32:06.000Z,280.46
2023-12-23T08:34:12.000Z,280.46
2023-12-23T08:35:39.000Z,280.46
2023-12-23T08:37:47.000Z,280.46
2023-12-23T08:39:14.000Z,280.46
2023-12-23T08:41:20.000Z,280.52
2023-12-23T08:42:47.000Z,280.52
2023-12-23T08:44:54.000Z,280.52
2023-12-23T08:46:20.000Z,280.52
2023-12-23T08:48:26.000Z,280.46
2023-12-23T08:49:53.000Z,280.52
2023-12-23T08:51:59.000Z,280.52
2023-12-23T08:53:26.000Z,280.52
2023-12-23T08:55:32.000Z,280.52
2023-12-23T08:56:58.000Z,280.46
2023-12-23T08:59:04.000Z,280.52
2023-12-23T09:00:31.000Z,280.52
2023-12-23T09:02:37.000Z,280.52
2023-12-23T09:05:22.000Z,280.52
2023-12-23T09:06:49.000Z,280.46
2023-12-23T09:08:55.000Z,280.52
2023-12-23T09:10:22.000Z,280.52
2023-12-23T09:12:29.000Z,280.52
2023-12-23T09:13:55.000Z,280.46
2023-12-23T09:16:02.000Z,280.46
2023-12-23T09:17:28.000Z,280.46
2023-12-23T09:19:38.000Z,280.46
2023-12-23T09:21:04.000Z,280.52
2023-12-23T09:23:11.000Z,280.52
2023-12-23T09:24:37.000Z,280.59
2023-12-23T09:26:43.000Z,280.52
2023-12-23T09:28:10.000Z,280.52
2023-12-23T09:30:16.000Z,280.65
2023-12-23T09:31:43.000Z,280.59
2023-12-23T09:33:49.000Z,280.59
2023-12-23T09:35:15.000Z,280.59
2023-12-23T09:37:22.000Z,280.59
2023-12-23T09:38:48.000Z,280.59
2023-12-23T09:40:54.000Z,280.59
2023-12-23T09:43:39.000Z,280.59
2023-12-23T09:45:06.000Z,280.59
2023-12-23T09:47:12.000Z,280.65
2023-12-23T09:48:39.000Z,280.65
2023-12-23T09:50:46.000Z,280.65
2023-12-23T09:52:12.000Z,280.71
2023-12-23T09:54:18.000Z,280.71
2023-12-23T09:55:45.000Z,280.71
2023-12-23T09:57:51.000Z,280.71
2023-12-23T09:59:18.000Z,280.71
2023-12-23T10:01:25.000Z,280.71
2023-12-23T10:02:51.000Z,280.71
2023-12-23T10:04:58.000Z,280.77
2023-12-23T10:06:25.000Z,280.77
2023-12-23T10:08:31.000Z,280.77
2023-12-23T10:09:58.000Z,280.77
2023-12-23T10:12:05.000Z,280.84
2023-12-23T10:13:31.000Z,280.84
2023-12-23T10:15:38.000Z,280.9
2023-12-23T10:17:04.000Z,280.9
2023-12-23T10:19:11.000Z,280.9
2023-12-23T10:21:58.000Z,280.9
2023-12-23T10:23:28.000Z,280.9
2023-12-23T10:25:35.000Z,280.9
2023-12-23T10:27:01.000Z,280.96
2023-12-23T10:29:07.000Z,280.9
2023-12-23T10:30:34.000Z,280.96
2023-12-23T10:32:40.000Z,280.96
2023-12-23T10:34:07.000Z,280.96
2023-12-23T10:36:13.000Z,280.96
2023-12-23T10:37:40.000Z,280.96
2023-12-23T10:39:46.000Z,281.02
2023-12-23T10:41:13.000Z,281.02
2023-12-23T10:43:19.000Z,280.96
2023-12-23T10:44:45.000Z,281.02
2023-12-23T10:46:52.000Z,280.96
2023-12-23T10:48:19.000Z,281.02
2023-12-23T10:50:25.000Z,280.96
2023-12-23T10:51:52.000Z,281.02
2023-12-23T10:53:58.000Z,281.02
2023-12-23T10:55:24.000Z,281.02
2023-12-23T10:57:30.000Z,281.02
2023-12-23T11:00:16.000Z,281.02
2023-12-23T11:01:42.000Z,281.09
2023-12-23T11:03:49.000Z,281.02
2023-12-23T11:05:15.000Z,281.02
2023-12-23T11:07:21.000Z,281.09
2023-12-23T11:08:48.000Z,281.02
2023-12-23T11:10:54.000Z,281.02
2023-12-23T11:12:21.000Z,281.09
2023-12-23T11:14:27.000Z,281.09
2023-12-23T11:15:54.000Z,281.15
2023-12-23T11:18:00.000Z,281.15
2023-12-23T11:19:28.000Z,281.09
2023-12-23T11:21:34.000Z,281.09
2023-12-23T11:23:01.000Z,281.15
2023-12-23T11:25:07.000Z,281.09
2023-12-23T11:26:33.000Z,281.09
2023-12-23T11:28:39.000Z,281.15
2023-12-23T11:30:06.000Z,281.09
2023-12-23T11:32:13.000Z,281.15
2023-12-23T11:33:39.000Z,281.15
2023-12-23T11:35:46.000Z,281.15
2023-12-23T11:38:31.000Z,281.15
2023-12-23T11:39:58.000Z,281.15
2023-12-23T11:42:04.000Z,281.15
2023-12-23T11:43:31.000Z,281.15
2023-12-23T11:45:37.000Z,281.15
2023-12-23T11:47:03.000Z,281.21
2023-12-23T11:49:10.000Z,281.21
2023-12-23T11:50:36.000Z,281.15
2023-12-23T11:52:43.000Z,281.21
2023-12-23T11:54:09.000Z,281.15
2023-12-23T11:56:15.000Z,281.21
2023-12-23T11:57:42.000Z,281.21
2023-12-23T11:59:49.000Z,281.15
2023-12-23T12:01:15.000Z,281.15
2023-12-23T12:03:21.000Z,281.15
2023-12-23T12:04:48.000Z,281.15
2023-12-23T12:06:54.000Z,281.15
2023-12-23T12:08:21.000Z,281.15
2023-12-23T12:10:27.000Z,281.21
2023-12-23T12:11:53.000Z,281.15
2023-12-23T12:14:00.000Z,281.09
2023-12-23T12:16:46.000Z,281.15
2023-12-23T12:18:12.000Z,281.15
2023-12-23T12:20:19.000Z,281.15
2023-12-23T12:21:45.000Z,281.15
2023-12-23T12:23:52.000Z,281.15
2023-12-23T12:25:18.000Z,281.15
2023-12-23T12:27:24.000Z,281.09
2023-12-23T12:28:51.000Z,281.09
2023-12-23T12:30:57.000Z,281.09
2023-12-23T12:32:24.000Z,281.15
2023-12-23T12:34:30.000Z,281.21
2023-12-23T12:35:57.000Z,281.15
2023-12-23T12:38:03.000Z,281.21
2023-12-23T12:39:44.000Z,281.15
2023-12-23T12:41:50.000Z,281.15
2023-12-23T12:43:17.000Z,281.15
2023-12-23T12:45:23.000Z,281.15
2023-12-23T12:46:49.000Z,281.15
2023-12-23T12:48:56.000Z,281.15
2023-12-23T12:50:22.000Z,281.15
2023-12-23T12:52:29.000Z,281.21
2023-12-23T12:55:14.000Z,281.27
2023-12-23T12:56:40.000Z,281.27
2023-12-23T12:58:46.000Z,281.27
2023-12-23T13:00:13.000Z,281.27
2023-12-23T13:02:19.000Z,281.34
2023-12-23T13:03:45.000Z,281.27
2023-12-23T13:05:52.000Z,281.21
2023-12-23T13:07:19.000Z,281.21
2023-12-23T13:09:25.000Z,281.21
2023-12-23T13:10:52.000Z,281.15
2023-12-23T13:12:58.000Z,281.15
2023-12-23T13:14:24.000Z,281.15
2023-12-23T13:16:31.000Z,281.09
2023-12-23T13:17:57.000Z,281.15
2023-12-23T13:20:04.000Z,281.09
2023-12-23T13:21:30.000Z,281.09
2023-12-23T13:23:37.000Z,281.09
2023-12-23T13:25:03.000Z,281.09
2023-12-23T13:27:10.000Z,281.09
2023-12-23T13:28:36.000Z,281.15
2023-12-23T13:30:42.000Z,281.09
2023-12-23T13:33:28.000Z,281.09
2023-12-23T13:34:54.000Z,281.09
2023-12-23T13:37:01.000Z,281.09
2023-12-23T13:38:28.000Z,281.15
2023-12-23T13:40:34.000Z,281.09
2023-12-23T13:42:00.000Z,281.15
2023-12-23T13:44:06.000Z,281.15
2023-12-23T13:45:33.000Z,281.15
2023-12-23T13:47:39.000Z,281.15
2023-12-23T13:49:06.000Z,281.15
2023-12-23T13:51:12.000Z,281.15
2023-12-23T13:52:39.000Z,281.09
2023-12-23T13:54:45.000Z,281.15
2023-12-23T13:56:12.000Z,281.15
2023-12-23T13:58:18.000Z,281.09
2023-12-23T13:59:44.000Z,281.09
2023-12-23T14:01:50.000Z,281.09
2023-12-23T14:03:17.000Z,281.09
2023-12-23T14:05:23.000Z,281.09
2023-12-23T14:06:50.000Z,281.09
2023-12-23T14:08:56.000Z,281.15
2023-12-23T14:11:42.000Z,281.09
2023-12-23T14:13:08.000Z,281.15
2023-12-23T14:15:14.000Z,281.15
2023-12-23T14:16:41.000Z,281.09
2023-12-23T14:18:47.000Z,281.15
2023-12-23T14:20:13.000Z,281.15
2023-12-23T14:22:20.000Z,281.15
2023-12-23T14:23:46.000Z,281.15
2023-12-23T14:25:52.000Z,281.15
2023-12-23T14:27:19.000Z,281.15
2023-12-23T14:29:25.000Z,281.15
2023-12-23T14:30:52.000Z,281.09
2023-12-23T14:32:58.000Z,281.15
2023-12-23T14:34:25.000Z,281.15
2023-12-23T14:36:31.000Z,281.09
2023-12-23T14:37:58.000Z,281.15
2023-12-23T14:40:04.000Z,281.09
2023-12-23T14:41:31.000Z,281.15
2023-12-23T14:43:37.000Z,281.15
2023-12-23T14:45:04.000Z,281.21
2023-12-23T14:47:10.000Z,281.15
2023-12-23T14:49:55.000Z,281.09
2023-12-23T14:51:22.000Z,281.09
2023-12-23T14:53:28.000Z,281.09
2023-12-23T14:54:55.000Z,281.09
2023-12-23T14:57:01.000Z,281.02
2023-12-23T14:58:27.000Z,281.02
2023-12-23T15:00:34.000Z,281.02
2023-12-23T15:02:00.000Z,281.02
2023-12-23T15:04:07.000Z,281.02
2023-12-23T15:05:33.000Z,281.02
2023-12-23T15:07:40.000Z,281.02
2023-12-23T15:09:06.000Z,281.02
2023-12-23T15:11:12.000Z,281.02
2023-12-23T15:12:39.000Z,281.02
2023-12-23T15:14:45.000Z,281.09
2023-12-23T15:16:11.000Z,281.02
2023-12-23T15:18:18.000Z,281.02
2023-12-23T15:19:44.000Z,281.02
2023-12-23T15:21:50.000Z,281.02
2023-12-23T15:23:17.000Z,281.09
2023-12-23T15:25:23.000Z,281.09
2023-12-23T15:28:09.000Z,280.96
2023-12-23T15:29:35.000Z,280.96
2023-12-23T15:31:42.000Z,281.02
2023-12-23T15:33:08.000Z,281.02
2023-12-23T15:35:15.000Z,280.96
2023-12-23T15:36:41.000Z,280.96
2023-12-23T15:38:48.000Z,280.9
2023-12-23T15:40:14.000Z,280.9
2023-12-23T15:42:20.000Z,280.96
2023-12-23T15:43:47.000Z,280.96
2023-12-23T15:45:53.000Z,281.02
2023-12-23T15:47:19.000Z,281.02
2023-12-23T15:49:26.000Z,280.96
2023-12-23T15:50:52.000Z,280.96
2023-12-23T15:52:58.000Z,280.96
2023-12-23T15:54:25.000Z,280.96
2023-12-23T15:56:31.000Z,280.96
2023-12-23T15:57:58.000Z,280.96
2023-12-23T16:00:04.000Z,280.9
2023-12-23T16:01:30.000Z,280.96
2023-12-23T16:03:36.000Z,281.02
2023-12-23T16:06:22.000Z,280.96
2023-12-23T16:07:48.000Z,280.96
2023-12-23T16:09:55.000Z,280.96
2023-12-23T16:11:21.000Z,280.96
2023-12-23T16:13:28.000Z,280.96
2023-12-23T16:14:55.000Z,280.9
2023-12-23T16:17:01.000Z,280.96
2023-12-23T16:18:27.000Z,280.96
2023-12-23T16:20:34.000Z,281.02
2023-12-23T16:22:01.000Z,281.02
2023-12-23T16:24:07.000Z,281.02
2023-12-23T16:25:33.000Z,281.02
2023-12-23T16:27:40.000Z,281.02
2023-12-23T16:29:06.000Z,281.02
2023-12-23T16:31:13.000Z,280.96
2023-12-23T16:32:39.000Z,280.96
2023-12-23T16:34:46.000Z,280.9
2023-12-23T16:36:13.000Z,280.84
2023-12-23T16:38:19.000Z,280.9
2023-12-23T16:39:46.000Z,280.9
2023-12-23T16:41:52.000Z,280.9
2023-12-23T16:44:38.000Z,280.9
2023-12-23T16:46:04.000Z,280.96
2023-12-23T16:48:11.000Z,280.9
2023-12-23T16:49:37.000Z,280.9
2023-12-23T16:51:46.000Z,280.9
2023-12-23T16:53:13.000Z,280.84
2023-12-23T16:55:19.000Z,280.84
2023-12-23T16:56:45.000Z,280.77
2023-12-23T16:58:52.000Z,280.77
2023-12-23T17:00:18.000Z,280.77
2023-12-23T17:02:25.000Z,280.77
2023-12-23T17:03:51.000Z,280.77
2023-12-23T17:05:58.000Z,280.71
2023-12-23T17:07:25.000Z,280.71
2023-12-23T17:09:31.000Z,280.71
2023-12-23T17:10:57.000Z,280.71
2023-12-23T17:13:04.000Z,280.71
2023-12-23T17:14:30.000Z,280.71
2023-12-23T17:16:36.000Z,280.71
2023-12-23T17:18:03.000Z,280.71
2023-12-23T17:20:09.000Z,280.65
2023-12-23T17:22:54.000Z,280.59
2023-12-23T17:24:21.000Z,280.65
2023-12-23T17:26:27.000Z,280.65
2023-12-23T17:27:54.000Z,280.59
2023-12-23T17:30:00.000Z,280.59
2023-12-23T17:31:27.000Z,280.59
2023-12-23T17:33:33.000Z,280.59
2023-12-23T17:35:00.000Z,280.59
2023-12-23T17:37:06.000Z,280.52
2023-12-23T17:38:33.000Z,280.52
2023-12-23T17:40:40.000Z,280.65
2023-12-23T17:42:06.000Z,280.65
2023-12-23T17:44:12.000Z,280.59
2023-12-23T17:45:39.000Z,280.59
2023-12-23T17:47:45.000Z,280.59
2023-12-23T17:49:12.000Z,280.59
2023-12-23T17:51:18.000Z,280.59
2023-12-23T17:52:45.000Z,280.52
2023-12-23T17:54:51.000Z,280.52
2023-12-23T17:56:18.000Z,280.52
2023-12-23T17:58:24.000Z,280.52
2023-12-23T18:01:09.000Z,280.52
2023-12-23T18:02:36.000Z,280.46
2023-12-23T18:04:42.000Z,280.52
2023-12-23T18:06:08.000Z,280.52
2023-12-23T18:08:15.000Z,280.46
2023-12-23T18:09:41.000Z,280.52
2023-12-23T18:11:47.000Z,280.52
2023-12-23T18:13:14.000Z,280.52
2023-12-23T18:15:20.000Z,280.46
2023-12-23T18:16:46.000Z,280.46
2023-12-23T18:18:53.000Z,280.46
2023-12-23T18:20:19.000Z,280.46
2023-12-23T18:22:25.000Z,280.46
2023-12-23T18:23:52.000Z,280.46
2023-12-23T18:25:58.000Z,280.46
2023-12-23T18:27:25.000Z,280.46
2023-12-23T18:29:31.000Z,280.46
2023-12-23T18:30:57.000Z,280.46
2023-12-23T18:33:04.000Z,280.46
2023-12-23T18:34:31.000Z,280.52
2023-12-23T18:36:37.000Z,280.52
2023-12-23T18:39:22.000Z,280.52
2023-12-23T18:40:49.000Z,280.52
2023-12-23T18:42:55.000Z,280.59
2023-12-23T18:44:22.000Z,280.59
2023-12-23T18:46:28.000Z,280.59
2023-12-23T18:47:54.000Z,280.59
2023-12-23T18:50:00.000Z,280.59
2023-12-23T18:51:27.000Z,280.59
2023-12-23T18:53:33.000Z,280.65
2023-12-23T18:55:00.000Z,280.65
2023-12-23T18:57:06.000Z,280.59
2023-12-23T18:58:33.000Z,280.71
2023-12-23T19:00:39.000Z,280.71
2023-12-23T19:02:05.000Z,280.71
2023-12-23T19:04:11.000Z,280.71
2023-12-23T19:05:38.000Z,280.71
2023-12-23T19:07:44.000Z,280.77
2023-12-23T19:09:11.000Z,280.71
2023-12-23T19:11:17.000Z,280.71
2023-12-23T19:12:43.000Z,280.77
2023-12-23T19:14:50.000Z,280.77
2023-12-23T19:17:35.000Z,280.77
2023-12-23T19:19:02.000Z,280.77
2023-12-23T19:21:08.000Z,280.77
2023-12-23T19:22:34.000Z,280.77
2023-12-23T19:24:40.000Z,280.71
2023-12-23T19:26:07.000Z,280.71
2023-12-23T19:28:13.000Z,280.77
2023-12-23T19:29:40.000Z,280.77
2023-12-23T19:31:46.000Z,280.77
2023-12-23T19:33:13.000Z,280.77
2023-12-23T19:35:20.000Z,280.84
2023-12-23T19:36:46.000Z,280.84
2023-12-23T19:38:52.000Z,280.77
2023-12-23T19:40:19.000Z,280.84
2023-12-23T19:42:25.000Z,280.84
2023-12-23T19:43:52.000Z,280.84
2023-12-23T19:45:58.000Z,280.9
2023-12-23T19:47:25.000Z,280.9
2023-12-23T19:49:31.000Z,280.84
2023-12-23T19:50:58.000Z,280.84
2023-12-23T19:53:04.000Z,280.84
2023-12-23T19:55:49.000Z,280.9
2023-12-23T19:57:16.000Z,280.9
2023-12-23T19:59:22.000Z,280.9
2023-12-23T20:00:49.000Z,280.9
2023-12-23T20:02:55.000Z,280.84
2023-12-23T20:04:21.000Z,280.9
2023-12-23T20:06:28.000Z,280.9
2023-12-23T20:07:54.000Z,280.84
2023-12-23T20:10:01.000Z,280.84
2023-12-23T20:11:27.000Z,280.84
2023-12-23T20:13:33.000Z,280.9
2023-12-23T20:15:00.000Z,280.9
2023-12-23T20:17:06.000Z,280.9
2023-12-23T20:18:33.000Z,280.96
2023-12-23T20:20:39.000Z,280.9
2023-12-23T20:22:06.000Z,280.9
2023-12-23T20:24:12.000Z,280.9
2023-12-23T20:25:38.000Z,280.9
2023-12-23T20:27:45.000Z,280.9
2023-12-23T20:29:11.000Z,280.84
2023-12-23T20:31:18.000Z,280.84
2023-12-23T20:34:03.000Z,280.77
2023-12-23T20:35:29.000Z,280.77
2023-12-23T20:37:36.000Z,280.77
2023-12-23T20:39:03.000Z,280.9
2023-12-23T20:41:09.000Z,280.9
2023-12-23T20:42:36.000Z,280.84
2023-12-23T20:44:42.000Z,280.84
2023-12-23T20:46:08.000Z,280.77
2023-12-23T20:48:15.000Z,280.77
2023-12-23T20:49:41.000Z,280.84
2023-12-23T20:51:47.000Z,280.84
2023-12-23T20:53:14.000Z,280.84
2023-12-23T20:55:20.000Z,280.84
2023-12-23T20:56:47.000Z,280.84
2023-12-23T20:58:53.000Z,280.84
2023-12-23T21:00:20.000Z,280.84
2023-12-23T21:02:27.000Z,280.84
2023-12-23T21:03:53.000Z,280.84
2023-12-23T21:06:00.000Z,280.9
2023-12-23T21:07:26.000Z,280.96
2023-12-23T21:09:32.000Z,281.09
2023-12-23T21:12:18.000Z,281.02
2023-12-23T21:13:44.000Z,281.02
2023-12-23T21:15:51.000Z,280.96
2023-12-23T21:17:17.000Z,280.96
2023-12-23T21:19:23.000Z,280.96
2023-12-23T21:20:50.000Z,280.96
2023-12-23T21:22:56.000Z,280.96
2023-12-23T21:24:23.000Z,280.96
2023-12-23T21:26:29.000Z,281.02
2023-12-23T21:27:56.000Z,281.02
2023-12-23T21:30:02.000Z,281.02
2023-12-23T21:31:29.000Z,281.02
2023-12-23T21:33:35.000Z,281.09
2023-12-23T21:35:02.000Z,281.02
2023-12-23T21:37:08.000Z,281.09
2023-12-23T21:38:34.000Z,281.02
2023-12-23T21:40:41.000Z,281.02
2023-12-23T21:42:11.000Z,281.09
2023-12-23T21:44:18.000Z,281.02
2023-12-23T21:45:44.000Z,281.02
2023-12-23T21:47:50.000Z,281.02
2023-12-23T21:50:40.000Z,281.09
2023-12-23T21:52:06.000Z,281.15
2023-12-23T21:54:13.000Z,281.09
2023-12-23T21:55:39.000Z,281.15
2023-12-23T21:57:46.000Z,281.15
2023-12-23T21:59:12.000Z,281.21
2023-12-23T22:01:18.000Z,281.21
2023-12-23T22:02:45.000Z,281.21
2023-12-23T22:04:51.000Z,281.21
2023-12-23T22:06:18.000Z,281.15
2023-12-23T22:08:24.000Z,281.09
2023-12-23T22:09:51.000Z,281.15
2023-12-23T22:11:57.000Z,281.21
2023-12-23T22:13:24.000Z,281.15
2023-12-23T22:15:30.000Z,281.15
2023-12-23T22:16:56.000Z,281.09
2023-12-23T22:19:03.000Z,281.09
2023-12-23T22:20:29.000Z,281.09
2023-12-23T22:22:36.000Z,281.15
2023-12-23T22:24:02.000Z,281.15
2023-12-23T22:26:08.000Z,281.09
2023-12-23T22:28:53.000Z,281.15
2023-12-23T22:30:20.000Z,281.21
2023-12-23T22:32:26.000Z,281.09
2023-12-23T22:33:53.000Z,281.15
2023-12-23T22:35:59.000Z,281.09
2023-12-23T22:37:26.000Z,281.15
2023-12-23T22:39:32.000Z,281.15
2023-12-23T22:40:59.000Z,281.09
2023-12-23T22:43:09.000Z,281.15
2023-12-23T22:44:36.000Z,281.15
2023-12-23T22:46:42.000Z,281.09
2023-12-23T22:48:09.000Z,281.09